Hoyo de Manzanares, Spain
Current Conditions -  °F | °C
As of 4:30 PM on Friday 31 Oct 2014 (Local Time) from LEVS Reporting Station
Clear Clear  
Wind Chill: 75°   Ceiling: Unl
Heat Index: 75°   Visibility: 6mi
Dew Point: 43°   Wind: 5mph
Humidity: 31%   Direction: 150°SSE
Pressure: 30.18"   Gusts: NA
Location:  40.62°N, 3.91°W
Report Text: LEVS 311530Z 15004KT 120V200 CAVOK 24/06 Q1022
Loading
Personal Weather Stations






























Interactive Weather Map
Tropical Storm Tracking
New forecast layout! Learn more

10-Day Weather Forecast

Advertisements
Track Severe Weather on mobile